sensor_id;sensor_type;location;lat;lon;timestamp;P1;durP1;ratioP1;P2;durP2;ratioP2
9324;SDS011;4701;51.566;6.776;2022-08-19T05:02:08;9.33;;;8.43;;
9324;SDS011;4701;51.566;6.776;2022-08-19T05:04:10;9.57;;;8.57;;
9324;SDS011;4701;51.566;6.776;2022-08-19T05:06:13;9.57;;;8.57;;
9324;SDS011;4701;51.566;6.776;2022-08-19T05:08:18;9.03;;;8.13;;
9324;SDS011;4701;51.566;6.776;2022-08-19T05:10:22;8.97;;;7.47;;
9324;SDS011;4701;51.566;6.776;2022-08-19T05:12:24;8.47;;;7.67;;
9324;SDS011;4701;51.566;6.776;2022-08-19T05:14:27;9.10;;;8.20;;
9324;SDS011;4701;51.566;6.776;2022-08-19T05:16:30;42.13;;;37.93;;
9324;SDS011;4701;51.566;6.776;2022-08-19T05:18:33;16.47;;;12.37;;
9324;SDS011;4701;51.566;6.776;2022-08-19T05:20:53;18.37;;;15.93;;
9324;SDS011;4701;51.566;6.776;2022-08-19T05:23:13;10.20;;;9.10;;
9324;SDS011;4701;51.566;6.776;2022-08-19T05:25:17;9.43;;;8.60;;
9324;SDS011;4701;51.566;6.776;2022-08-19T05:27:21;9.17;;;8.10;;
9324;SDS011;4701;51.566;6.776;2022-08-19T05:29:24;8.97;;;8.17;;
9324;SDS011;4701;51.566;6.776;2022-08-19T05:31:27;9.30;;;8.23;;
9324;SDS011;4701;51.566;6.776;2022-08-19T05:33:29;8.70;;;7.90;;
9324;SDS011;4701;51.566;6.776;2022-08-19T05:35:32;9.53;;;8.50;;
9324;SDS011;4701;51.566;6.776;2022-08-19T05:37:34;9.57;;;7.73;;
9324;SDS011;4701;51.566;6.776;2022-08-19T05:39:37;8.50;;;7.77;;
9324;SDS011;4701;51.566;6.776;2022-08-19T05:41:41;9.83;;;8.53;;
9324;SDS011;4701;51.566;6.776;2022-08-19T05:43:43;8.47;;;7.67;;
9324;SDS011;4701;51.566;6.776;2022-08-19T05:45:45;8.70;;;7.90;;
9324;SDS011;4701;51.566;6.776;2022-08-19T05:47:47;9.03;;;8.13;;
9324;SDS011;4701;51.566;6.776;2022-08-19T05:49:49;9.73;;;8.43;;
9324;SDS011;4701;51.566;6.776;2022-08-19T05:51:53;9.50;;;8.60;;
9324;SDS011;4701;51.566;6.776;2022-08-19T05:53:55;9.27;;;8.37;;
9324;SDS011;4701;51.566;6.776;2022-08-19T05:55:58;9.90;;;8.87;;
9324;SDS011;4701;51.566;6.776;2022-08-19T05:58:04;9.47;;;8.57;;
9324;SDS011;4701;51.566;6.776;2022-08-19T06:00:10;12.97;;;11.57;;
9324;SDS011;4701;51.566;6.776;2022-08-19T06:02:13;19.00;;;17.10;;
9324;SDS011;4701;51.566;6.776;2022-08-19T06:04:15;14.70;;;10.50;;
9324;SDS011;4701;51.566;6.776;2022-08-19T06:06:19;12.33;;;9.73;;
9324;SDS011;4701;51.566;6.776;2022-08-19T06:08:22;12.10;;;10.90;;
9324;SDS011;4701;51.566;6.776;2022-08-19T06:10:25;16.03;;;14.33;;
9324;SDS011;4701;51.566;6.776;2022-08-19T06:12:27;31.47;;;27.20;;
9324;SDS011;4701;51.566;6.776;2022-08-19T06:14:32;23.37;;;19.93;;
9324;SDS011;4701;51.566;6.776;2022-08-19T06:16:39;23.10;;;20.63;;
9324;SDS011;4701;51.566;6.776;2022-08-19T06:18:42;17.30;;;15.57;;
9324;SDS011;4701;51.566;6.776;2022-08-19T06:20:44;17.27;;;14.90;;
9324;SDS011;4701;51.566;6.776;2022-08-19T06:22:47;15.50;;;13.07;;
9324;SDS011;4701;51.566;6.776;2022-08-19T06:24:53;23.13;;;20.53;;
9324;SDS011;4701;51.566;6.776;2022-08-19T06:26:55;17.17;;;15.30;;
9324;SDS011;4701;51.566;6.776;2022-08-19T06:28:59;27.73;;;24.20;;
9324;SDS011;4701;51.566;6.776;2022-08-19T06:31:05;32.80;;;28.90;;
9324;SDS011;4701;51.566;6.776;2022-08-19T06:33:08;31.10;;;26.13;;
9324;SDS011;4701;51.566;6.776;2022-08-19T06:35:09;40.30;;;33.83;;
9324;SDS011;4701;51.566;6.776;2022-08-19T06:37:13;45.90;;;34.57;;
9324;SDS011;4701;51.566;6.776;2022-08-19T06:39:16;40.07;;;35.77;;
9324;SDS011;4701;51.566;6.776;2022-08-19T06:41:22;41.47;;;36.53;;
9324;SDS011;4701;51.566;6.776;2022-08-19T06:43:23;45.70;;;35.47;;
9324;SDS011;4701;51.566;6.776;2022-08-19T06:45:25;38.83;;;33.97;;
9324;SDS011;4701;51.566;6.776;2022-08-19T06:47:28;38.23;;;32.37;;
9324;SDS011;4701;51.566;6.776;2022-08-19T06:49:31;37.03;;;31.50;;
9324;SDS011;4701;51.566;6.776;2022-08-19T06:51:33;38.67;;;33.33;;
9324;SDS011;4701;51.566;6.776;2022-08-19T06:53:35;37.53;;;33.40;;
9324;SDS011;4701;51.566;6.776;2022-08-19T06:55:37;39.53;;;33.17;;
9324;SDS011;4701;51.566;6.776;2022-08-19T06:57:41;38.93;;;32.80;;
9324;SDS011;4701;51.566;6.776;2022-08-19T06:59:45;39.17;;;33.23;;
9324;SDS011;4701;51.566;6.776;2022-08-19T07:01:48;39.10;;;34.97;;
9324;SDS011;4701;51.566;6.776;2022-08-19T07:03:51;42.07;;;37.07;;
9324;SDS011;4701;51.566;6.776;2022-08-19T07:05:53;40.13;;;35.17;;
9324;SDS011;4701;51.566;6.776;2022-08-19T07:07:55;43.10;;;34.60;;
9324;SDS011;4701;51.566;6.776;2022-08-19T07:09:57;41.33;;;35.07;;
9324;SDS011;4701;51.566;6.776;2022-08-19T07:11:59;41.97;;;37.13;;
9324;SDS011;4701;51.566;6.776;2022-08-19T07:14:03;41.53;;;36.40;;
9324;SDS011;4701;51.566;6.776;2022-08-19T07:16:07;48.00;;;40.93;;
9324;SDS011;4701;51.566;6.776;2022-08-19T07:18:11;46.90;;;39.47;;
9324;SDS011;4701;51.566;6.776;2022-08-19T07:20:13;48.80;;;40.70;;
9324;SDS011;4701;51.566;6.776;2022-08-19T07:22:18;45.63;;;38.97;;
9324;SDS011;4701;51.566;6.776;2022-08-19T07:24:21;47.90;;;38.87;;
9324;SDS011;4701;51.566;6.776;2022-08-19T07:26:25;42.23;;;37.80;;
9324;SDS011;4701;51.566;6.776;2022-08-19T07:28:29;41.03;;;36.57;;
9324;SDS011;4701;51.566;6.776;2022-08-19T07:30:32;43.33;;;38.47;;
9324;SDS011;4701;51.566;6.776;2022-08-19T07:32:37;44.07;;;39.30;;
9324;SDS011;4701;51.566;6.776;2022-08-19T07:34:39;42.97;;;38.47;;
9324;SDS011;4701;51.566;6.776;2022-08-19T07:36:41;43.07;;;38.47;;
9324;SDS011;4701;51.566;6.776;2022-08-19T07:38:45;43.80;;;38.07;;
9324;SDS011;4701;51.566;6.776;2022-08-19T07:40:49;41.13;;;35.67;;
9324;SDS011;4701;51.566;6.776;2022-08-19T07:42:51;41.77;;;37.27;;
9324;SDS011;4701;51.566;6.776;2022-08-19T07:44:53;40.13;;;35.83;;
9324;SDS011;4701;51.566;6.776;2022-08-19T07:46:57;40.23;;;35.87;;
9324;SDS011;4701;51.566;6.776;2022-08-19T07:49:00;43.87;;;38.00;;
9324;SDS011;4701;51.566;6.776;2022-08-19T07:51:03;38.97;;;34.67;;
9324;SDS011;4701;51.566;6.776;2022-08-19T07:53:08;39.53;;;35.23;;
9324;SDS011;4701;51.566;6.776;2022-08-19T07:55:10;41.57;;;34.67;;
9324;SDS011;4701;51.566;6.776;2022-08-19T07:57:12;36.53;;;32.53;;
9324;SDS011;4701;51.566;6.776;2022-08-19T07:59:14;36.47;;;31.37;;
9324;SDS011;4701;51.566;6.776;2022-08-19T08:01:18;38.80;;;31.03;;
9324;SDS011;4701;51.566;6.776;2022-08-19T08:03:24;36.40;;;32.37;;
9324;SDS011;4701;51.566;6.776;2022-08-19T08:05:41;37.27;;;32.90;;
9324;SDS011;4701;51.566;6.776;2022-08-19T08:08:01;36.87;;;32.40;;
9324;SDS011;4701;51.566;6.776;2022-08-19T08:10:21;38.33;;;33.90;;
9324;SDS011;4701;51.566;6.776;2022-08-19T08:12:24;36.17;;;32.37;;
9324;SDS011;4701;51.566;6.776;2022-08-19T08:14:29;37.93;;;32.73;;
9324;SDS011;4701;51.566;6.776;2022-08-19T08:16:34;41.33;;;35.53;;
9324;SDS011;4701;51.566;6.776;2022-08-19T08:18:38;39.17;;;34.60;;
9324;SDS011;4701;51.566;6.776;2022-08-19T08:20:42;48.27;;;42.27;;
9324;SDS011;4701;51.566;6.776;2022-08-19T08:22:44;39.30;;;33.63;;
9324;SDS011;4701;51.566;6.776;2022-08-19T08:25:06;42.77;;;36.37;;
9324;SDS011;4701;51.566;6.776;2022-08-19T08:27:10;39.63;;;35.17;;
9324;SDS011;4701;51.566;6.776;2022-08-19T08:29:12;41.13;;;33.43;;
9324;SDS011;4701;51.566;6.776;2022-08-19T08:31:15;35.40;;;30.60;;
9324;SDS011;4701;51.566;6.776;2022-08-19T08:33:19;37.17;;;30.83;;
9324;SDS011;4701;51.566;6.776;2022-08-19T08:35:23;33.63;;;30.07;;
9324;SDS011;4701;51.566;6.776;2022-08-19T08:37:25;32.78;;;29.27;;
9324;SDS011;4701;51.566;6.776;2022-08-19T08:39:27;31.80;;;28.50;;
9324;SDS011;4701;51.566;6.776;2022-08-19T08:41:34;35.33;;;28.53;;
9324;SDS011;4701;51.566;6.776;2022-08-19T08:43:44;29.27;;;26.25;;
9324;SDS011;4701;51.566;6.776;2022-08-19T08:45:50;26.07;;;22.93;;
9324;SDS011;4701;51.566;6.776;2022-08-19T08:47:57;24.97;;;21.03;;
9324;SDS011;4701;51.566;6.776;2022-08-19T08:50:04;21.60;;;19.40;;
9324;SDS011;4701;51.566;6.776;2022-08-19T08:52:13;26.70;;;23.87;;
9324;SDS011;4701;51.566;6.776;2022-08-19T08:54:23;31.77;;;27.07;;
9324;SDS011;4701;51.566;6.776;2022-08-19T08:56:26;28.90;;;25.45;;
9324;SDS011;4701;51.566;6.776;2022-08-19T08:58:30;28.00;;;25.02;;
9324;SDS011;4701;51.566;6.776;2022-08-19T09:00:44;31.13;;;25.50;;
9324;SDS011;4701;51.566;6.776;2022-08-19T09:02:47;29.88;;;26.67;;
9324;SDS011;4701;51.566;6.776;2022-08-19T09:04:50;28.75;;;25.52;;
9324;SDS011;4701;51.566;6.776;2022-08-19T09:06:54;26.77;;;23.40;;
9324;SDS011;4701;51.566;6.776;2022-08-19T09:09:18;27.20;;;24.33;;
9324;SDS011;4701;51.566;6.776;2022-08-19T09:11:39;23.50;;;21.08;;
9324;SDS011;4701;51.566;6.776;2022-08-19T09:14:01;24.70;;;21.83;;
9324;SDS011;4701;51.566;6.776;2022-08-19T09:16:11;23.38;;;20.33;;
9324;SDS011;4701;51.566;6.776;2022-08-19T09:18:16;25.67;;;22.83;;
9324;SDS011;4701;51.566;6.776;2022-08-19T09:20:20;22.98;;;19.77;;
9324;SDS011;4701;51.566;6.776;2022-08-19T09:22:23;25.90;;;23.17;;
9324;SDS011;4701;51.566;6.776;2022-08-19T09:24:28;30.33;;;21.93;;
9324;SDS011;4701;51.566;6.776;2022-08-19T09:26:30;25.50;;;20.75;;
9324;SDS011;4701;51.566;6.776;2022-08-19T09:28:33;25.65;;;22.85;;
9324;SDS011;4701;51.566;6.776;2022-08-19T09:30:38;33.50;;;26.98;;
9324;SDS011;4701;51.566;6.776;2022-08-19T09:32:41;29.80;;;24.85;;
9324;SDS011;4701;51.566;6.776;2022-08-19T09:34:45;27.08;;;23.73;;
9324;SDS011;4701;51.566;6.776;2022-08-19T09:36:47;29.92;;;26.33;;
9324;SDS011;4701;51.566;6.776;2022-08-19T09:38:55;28.77;;;24.95;;
9324;SDS011;4701;51.566;6.776;2022-08-19T09:41:03;26.73;;;23.70;;
9324;SDS011;4701;51.566;6.776;2022-08-19T09:43:06;26.38;;;22.30;;
9324;SDS011;4701;51.566;6.776;2022-08-19T09:45:08;25.25;;;22.75;;
9324;SDS011;4701;51.566;6.776;2022-08-19T09:47:11;27.42;;;24.45;;
9324;SDS011;4701;51.566;6.776;2022-08-19T09:49:15;24.13;;;21.73;;
9324;SDS011;4701;51.566;6.776;2022-08-19T09:51:19;29.02;;;23.75;;
9324;SDS011;4701;51.566;6.776;2022-08-19T09:53:23;29.77;;;23.77;;
9324;SDS011;4701;51.566;6.776;2022-08-19T09:55:25;24.65;;;22.02;;
9324;SDS011;4701;51.566;6.776;2022-08-19T09:57:29;26.30;;;22.15;;
9324;SDS011;4701;51.566;6.776;2022-08-19T09:59:31;29.05;;;23.38;;
9324;SDS011;4701;51.566;6.776;2022-08-19T10:01:33;28.10;;;25.10;;
9324;SDS011;4701;51.566;6.776;2022-08-19T10:03:35;28.50;;;21.30;;
9324;SDS011;4701;51.566;6.776;2022-08-19T10:05:38;27.00;;;24.15;;
9324;SDS011;4701;51.566;6.776;2022-08-19T10:07:52;33.03;;;28.02;;
9324;SDS011;4701;51.566;6.776;2022-08-19T10:10:14;32.40;;;28.92;;
9324;SDS011;4701;51.566;6.776;2022-08-19T10:12:22;28.13;;;23.77;;
9324;SDS011;4701;51.566;6.776;2022-08-19T10:14:37;34.90;;;26.85;;
9324;SDS011;4701;51.566;6.776;2022-08-19T10:16:47;28.85;;;25.63;;
9324;SDS011;4701;51.566;6.776;2022-08-19T10:18:52;25.25;;;22.15;;
9324;SDS011;4701;51.566;6.776;2022-08-19T10:21:02;28.65;;;22.67;;
9324;SDS011;4701;51.566;6.776;2022-08-19T10:23:09;31.88;;;26.33;;
9324;SDS011;4701;51.566;6.776;2022-08-19T10:25:13;31.77;;;27.40;;
9324;SDS011;4701;51.566;6.776;2022-08-19T10:27:24;28.90;;;25.63;;
9324;SDS011;4701;51.566;6.776;2022-08-19T10:29:27;32.63;;;26.52;;
9324;SDS011;4701;51.566;6.776;2022-08-19T10:31:31;28.40;;;23.20;;
9324;SDS011;4701;51.566;6.776;2022-08-19T10:33:35;29.02;;;24.17;;
9324;SDS011;4701;51.566;6.776;2022-08-19T10:35:45;27.30;;;23.38;;
9324;SDS011;4701;51.566;6.776;2022-08-19T10:37:50;25.90;;;23.15;;
9324;SDS011;4701;51.566;6.776;2022-08-19T10:40:02;29.90;;;22.52;;
9324;SDS011;4701;51.566;6.776;2022-08-19T10:42:05;28.10;;;24.92;;
9324;SDS011;4701;51.566;6.776;2022-08-19T10:44:12;28.05;;;22.27;;
9324;SDS011;4701;51.566;6.776;2022-08-19T10:46:20;26.02;;;23.23;;
9324;SDS011;4701;51.566;6.776;2022-08-19T10:48:30;33.30;;;27.50;;
9324;SDS011;4701;51.566;6.776;2022-08-19T10:50:36;28.65;;;24.05;;
9324;SDS011;4701;51.566;6.776;2022-08-19T10:53:02;30.42;;;26.63;;
9324;SDS011;4701;51.566;6.776;2022-08-19T10:55:22;30.83;;;27.58;;
9324;SDS011;4701;51.566;6.776;2022-08-19T10:57:43;31.75;;;26.00;;
9324;SDS011;4701;51.566;6.776;2022-08-19T10:59:53;33.28;;;28.48;;
9324;SDS011;4701;51.566;6.776;2022-08-19T11:01:59;31.65;;;27.02;;
9324;SDS011;4701;51.566;6.776;2022-08-19T11:04:11;32.45;;;27.90;;
9324;SDS011;4701;51.566;6.776;2022-08-19T11:06:30;25.95;;;23.15;;
9324;SDS011;4701;51.566;6.776;2022-08-19T11:08:38;24.05;;;21.63;;
9324;SDS011;4701;51.566;6.776;2022-08-19T11:10:48;25.25;;;21.38;;
9324;SDS011;4701;51.566;6.776;2022-08-19T11:13:01;27.20;;;23.60;;
9324;SDS011;4701;51.566;6.776;2022-08-19T11:15:16;25.02;;;22.33;;
9324;SDS011;4701;51.566;6.776;2022-08-19T11:17:29;25.88;;;20.63;;
9324;SDS011;4701;51.566;6.776;2022-08-19T11:19:45;21.45;;;18.00;;
9324;SDS011;4701;51.566;6.776;2022-08-19T11:21:54;22.20;;;17.08;;
9324;SDS011;4701;51.566;6.776;2022-08-19T11:24:05;19.65;;;16.83;;
9324;SDS011;4701;51.566;6.776;2022-08-19T11:26:17;20.77;;;18.58;;
9324;SDS011;4701;51.566;6.776;2022-08-19T11:28:32;19.27;;;17.27;;
9324;SDS011;4701;51.566;6.776;2022-08-19T11:32:59;15.13;;;13.60;;
9324;SDS011;4701;51.566;6.776;2022-08-19T11:35:09;14.60;;;12.52;;
9324;SDS011;4701;51.566;6.776;2022-08-19T11:37:11;15.88;;;14.13;;
9324;SDS011;4701;51.566;6.776;2022-08-19T11:39:14;20.20;;;13.68;;
9324;SDS011;4701;51.566;6.776;2022-08-19T11:41:18;18.45;;;14.05;;
9324;SDS011;4701;51.566;6.776;2022-08-19T11:43:23;14.48;;;13.07;;
9324;SDS011;4701;51.566;6.776;2022-08-19T11:45:28;19.08;;;14.50;;
9324;SDS011;4701;51.566;6.776;2022-08-19T11:47:44;15.75;;;14.15;;
9324;SDS011;4701;51.566;6.776;2022-08-19T11:49:49;16.10;;;13.43;;
9324;SDS011;4701;51.566;6.776;2022-08-19T11:52:05;17.33;;;13.27;;
9324;SDS011;4701;51.566;6.776;2022-08-19T11:54:13;15.88;;;14.20;;
9324;SDS011;4701;51.566;6.776;2022-08-19T11:56:21;14.98;;;10.90;;
9324;SDS011;4701;51.566;6.776;2022-08-19T11:58:26;10.23;;;9.27;;
9324;SDS011;4701;51.566;6.776;2022-08-19T12:00:35;10.05;;;8.13;;
9324;SDS011;4701;51.566;6.776;2022-08-19T12:02:46;10.98;;;8.60;;
9324;SDS011;4701;51.566;6.776;2022-08-19T12:04:54;9.13;;;7.05;;
9324;SDS011;4701;51.566;6.776;2022-08-19T12:07:00;11.75;;;8.68;;
9324;SDS011;4701;51.566;6.776;2022-08-19T12:09:15;11.18;;;8.68;;
9324;SDS011;4701;51.566;6.776;2022-08-19T12:11:23;8.75;;;7.70;;
9324;SDS011;4701;51.566;6.776;2022-08-19T12:13:25;11.00;;;8.68;;
9324;SDS011;4701;51.566;6.776;2022-08-19T12:15:39;9.10;;;8.18;;
9324;SDS011;4701;51.566;6.776;2022-08-19T12:17:47;11.80;;;8.10;;
9324;SDS011;4701;51.566;6.776;2022-08-19T12:19:50;9.85;;;8.35;;
9324;SDS011;4701;51.566;6.776;2022-08-19T12:21:58;9.35;;;7.97;;
9324;SDS011;4701;51.566;6.776;2022-08-19T12:24:02;9.80;;;6.95;;
9324;SDS011;4701;51.566;6.776;2022-08-19T12:26:12;12.35;;;10.07;;
9324;SDS011;4701;51.566;6.776;2022-08-19T12:28:14;10.07;;;8.32;;
9324;SDS011;4701;51.566;6.776;2022-08-19T12:30:17;8.23;;;6.63;;
9324;SDS011;4701;51.566;6.776;2022-08-19T12:32:18;7.03;;;5.97;;
9324;SDS011;4701;51.566;6.776;2022-08-19T12:34:21;9.85;;;6.30;;
9324;SDS011;4701;51.566;6.776;2022-08-19T12:36:23;7.05;;;6.32;;
9324;SDS011;4701;51.566;6.776;2022-08-19T12:38:25;9.40;;;8.02;;
9324;SDS011;4701;51.566;6.776;2022-08-19T12:40:27;10.52;;;7.80;;
9324;SDS011;4701;51.566;6.776;2022-08-19T12:42:31;14.85;;;7.85;;
9324;SDS011;4701;51.566;6.776;2022-08-19T12:44:32;12.35;;;6.85;;
9324;SDS011;4701;51.566;6.776;2022-08-19T12:46:35;9.27;;;6.85;;
9324;SDS011;4701;51.566;6.776;2022-08-19T12:48:37;8.38;;;6.50;;
9324;SDS011;4701;51.566;6.776;2022-08-19T12:50:45;8.38;;;6.70;;
9324;SDS011;4701;51.566;6.776;2022-08-19T12:52:47;7.28;;;6.10;;
9324;SDS011;4701;51.566;6.776;2022-08-19T12:54:49;9.15;;;6.10;;
9324;SDS011;4701;51.566;6.776;2022-08-19T12:56:52;9.13;;;7.45;;
9324;SDS011;4701;51.566;6.776;2022-08-19T12:59:00;8.18;;;6.00;;
9324;SDS011;4701;51.566;6.776;2022-08-19T13:01:05;10.85;;;7.82;;
9324;SDS011;4701;51.566;6.776;2022-08-19T13:03:08;9.68;;;7.35;;
9324;SDS011;4701;51.566;6.776;2022-08-19T13:05:11;7.75;;;6.95;;
9324;SDS011;4701;51.566;6.776;2022-08-19T13:07:15;8.93;;;5.95;;
9324;SDS011;4701;51.566;6.776;2022-08-19T13:09:17;9.52;;;6.20;;
9324;SDS011;4701;51.566;6.776;2022-08-19T13:11:20;8.52;;;7.63;;
9324;SDS011;4701;51.566;6.776;2022-08-19T13:13:24;7.75;;;7.03;;
9324;SDS011;4701;51.566;6.776;2022-08-19T13:15:28;7.85;;;6.82;;
9324;SDS011;4701;51.566;6.776;2022-08-19T13:17:32;9.25;;;8.30;;
9324;SDS011;4701;51.566;6.776;2022-08-19T13:19:35;8.88;;;7.18;;
9324;SDS011;4701;51.566;6.776;2022-08-19T13:21:37;7.72;;;6.80;;
9324;SDS011;4701;51.566;6.776;2022-08-19T13:23:39;7.28;;;6.57;;
9324;SDS011;4701;51.566;6.776;2022-08-19T13:25:42;10.48;;;6.82;;
9324;SDS011;4701;51.566;6.776;2022-08-19T13:27:44;7.75;;;6.22;;
9324;SDS011;4701;51.566;6.776;2022-08-19T13:29:47;8.25;;;6.50;;
9324;SDS011;4701;51.566;6.776;2022-08-19T13:32:19;7.65;;;6.55;;
9324;SDS011;4701;51.566;6.776;2022-08-19T13:34:40;9.93;;;8.30;;
9324;SDS011;4701;51.566;6.776;2022-08-19T13:36:42;8.27;;;7.45;;
9324;SDS011;4701;51.566;6.776;2022-08-19T13:38:44;9.07;;;8.20;;
9324;SDS011;4701;51.566;6.776;2022-08-19T13:40:46;11.30;;;8.35;;
9324;SDS011;4701;51.566;6.776;2022-08-19T13:42:52;13.15;;;9.20;;
9324;SDS011;4701;51.566;6.776;2022-08-19T13:44:55;10.10;;;8.57;;
9324;SDS011;4701;51.566;6.776;2022-08-19T13:47:00;11.75;;;9.85;;
9324;SDS011;4701;51.566;6.776;2022-08-19T13:49:08;11.40;;;9.18;;
9324;SDS011;4701;51.566;6.776;2022-08-19T13:51:10;11.18;;;9.93;;
9324;SDS011;4701;51.566;6.776;2022-08-19T13:53:12;12.85;;;9.68;;
9324;SDS011;4701;51.566;6.776;2022-08-19T13:55:14;13.35;;;12.05;;
9324;SDS011;4701;51.566;6.776;2022-08-19T13:57:16;17.42;;;11.70;;
9324;SDS011;4701;51.566;6.776;2022-08-19T13:59:18;17.27;;;12.48;;
9324;SDS011;4701;51.566;6.776;2022-08-19T14:01:21;14.82;;;13.40;;
9324;SDS011;4701;51.566;6.776;2022-08-19T14:03:24;14.65;;;12.13;;
9324;SDS011;4701;51.566;6.776;2022-08-19T14:05:28;15.98;;;14.30;;
9324;SDS011;4701;51.566;6.776;2022-08-19T14:07:31;15.25;;;12.95;;
9324;SDS011;4701;51.566;6.776;2022-08-19T14:09:33;16.65;;;13.52;;
9324;SDS011;4701;51.566;6.776;2022-08-19T14:11:35;11.93;;;10.82;;
9324;SDS011;4701;51.566;6.776;2022-08-19T14:13:38;12.35;;;11.10;;
9324;SDS011;4701;51.566;6.776;2022-08-19T14:15:40;12.15;;;10.80;;
9324;SDS011;4701;51.566;6.776;2022-08-19T14:17:42;12.82;;;11.63;;
9324;SDS011;4701;51.566;6.776;2022-08-19T14:19:46;13.27;;;11.98;;
9324;SDS011;4701;51.566;6.776;2022-08-19T14:21:50;14.88;;;10.70;;
9324;SDS011;4701;51.566;6.776;2022-08-19T14:23:52;11.70;;;10.48;;
9324;SDS011;4701;51.566;6.776;2022-08-19T14:26:02;14.13;;;11.07;;
9324;SDS011;4701;51.566;6.776;2022-08-19T14:28:04;12.27;;;11.13;;
9324;SDS011;4701;51.566;6.776;2022-08-19T14:30:08;14.05;;;12.00;;
9324;SDS011;4701;51.566;6.776;2022-08-19T14:32:12;11.70;;;10.50;;
9324;SDS011;4701;51.566;6.776;2022-08-19T14:34:14;10.75;;;9.65;;
9324;SDS011;4701;51.566;6.776;2022-08-19T14:36:17;10.80;;;9.82;;
9324;SDS011;4701;51.566;6.776;2022-08-19T14:38:21;10.98;;;9.98;;
9324;SDS011;4701;51.566;6.776;2022-08-19T14:40:26;9.80;;;8.82;;
9324;SDS011;4701;51.566;6.776;2022-08-19T14:42:29;9.98;;;8.90;;
9324;SDS011;4701;51.566;6.776;2022-08-19T14:44:31;13.80;;;9.65;;
9324;SDS011;4701;51.566;6.776;2022-08-19T14:46:33;11.82;;;8.80;;
9324;SDS011;4701;51.566;6.776;2022-08-19T14:48:35;12.35;;;9.75;;
9324;SDS011;4701;51.566;6.776;2022-08-19T14:50:38;13.02;;;10.82;;
9324;SDS011;4701;51.566;6.776;2022-08-19T14:52:40;12.75;;;11.35;;
9324;SDS011;4701;51.566;6.776;2022-08-19T14:54:44;13.55;;;11.85;;
9324;SDS011;4701;51.566;6.776;2022-08-19T14:56:46;14.25;;;11.05;;
9324;SDS011;4701;51.566;6.776;2022-08-19T14:58:49;11.27;;;9.85;;
9324;SDS011;4701;51.566;6.776;2022-08-19T15:00:51;10.02;;;9.02;;
9324;SDS011;4701;51.566;6.776;2022-08-19T15:02:53;11.75;;;9.98;;
9324;SDS011;4701;51.566;6.776;2022-08-19T15:04:55;9.75;;;8.85;;
9324;SDS011;4701;51.566;6.776;2022-08-19T15:06:57;11.52;;;10.35;;
9324;SDS011;4701;51.566;6.776;2022-08-19T15:08:59;16.10;;;14.45;;
9324;SDS011;4701;51.566;6.776;2022-08-19T15:11:06;18.20;;;14.85;;
9324;SDS011;4701;51.566;6.776;2022-08-19T15:13:10;16.35;;;13.55;;
9324;SDS011;4701;51.566;6.776;2022-08-19T15:15:13;16.20;;;14.52;;
9324;SDS011;4701;51.566;6.776;2022-08-19T15:17:17;16.25;;;13.38;;
9324;SDS011;4701;51.566;6.776;2022-08-19T15:19:19;15.43;;;12.82;;
9324;SDS011;4701;51.566;6.776;2022-08-19T15:21:22;14.43;;;12.77;;
9324;SDS011;4701;51.566;6.776;2022-08-19T15:23:25;18.13;;;14.65;;
9324;SDS011;4701;51.566;6.776;2022-08-19T15:25:27;15.95;;;13.05;;
9324;SDS011;4701;51.566;6.776;2022-08-19T15:27:30;18.33;;;15.85;;
9324;SDS011;4701;51.566;6.776;2022-08-19T15:29:32;20.88;;;13.85;;
9324;SDS011;4701;51.566;6.776;2022-08-19T15:31:34;15.23;;;13.45;;
9324;SDS011;4701;51.566;6.776;2022-08-19T15:33:36;14.90;;;12.65;;
9324;SDS011;4701;51.566;6.776;2022-08-19T15:35:38;19.63;;;13.38;;
9324;SDS011;4701;51.566;6.776;2022-08-19T15:37:43;18.25;;;13.70;;
9324;SDS011;4701;51.566;6.776;2022-08-19T15:39:45;15.65;;;12.05;;
9324;SDS011;4701;51.566;6.776;2022-08-19T15:41:48;15.68;;;12.35;;
9324;SDS011;4701;51.566;6.776;2022-08-19T15:43:52;16.42;;;13.55;;
9324;SDS011;4701;51.566;6.776;2022-08-19T15:46:03;13.18;;;11.45;;
9324;SDS011;4701;51.566;6.776;2022-08-19T15:48:05;15.05;;;12.25;;
9324;SDS011;4701;51.566;6.776;2022-08-19T15:50:08;16.27;;;13.20;;
9324;SDS011;4701;51.566;6.776;2022-08-19T15:52:12;13.38;;;11.27;;
9324;SDS011;4701;51.566;6.776;2022-08-19T15:54:15;12.77;;;10.13;;
9324;SDS011;4701;51.566;6.776;2022-08-19T15:56:29;11.75;;;10.48;;
9324;SDS011;4701;51.566;6.776;2022-08-19T15:59:02;12.05;;;10.85;;
9324;SDS011;4701;51.566;6.776;2022-08-19T16:01:25;11.65;;;10.40;;
9324;SDS011;4701;51.566;6.776;2022-08-19T16:03:48;11.15;;;10.10;;
9324;SDS011;4701;51.566;6.776;2022-08-19T16:06:08;11.55;;;10.10;;
9324;SDS011;4701;51.566;6.776;2022-08-19T16:08:28;13.32;;;11.35;;
9324;SDS011;4701;51.566;6.776;2022-08-19T16:10:33;16.35;;;10.48;;
9324;SDS011;4701;51.566;6.776;2022-08-19T16:12:37;13.95;;;12.65;;
9324;SDS011;4701;51.566;6.776;2022-08-19T16:14:42;14.85;;;11.30;;
9324;SDS011;4701;51.566;6.776;2022-08-19T16:16:45;12.20;;;10.90;;
9324;SDS011;4701;51.566;6.776;2022-08-19T16:18:47;10.60;;;9.15;;
9324;SDS011;4701;51.566;6.776;2022-08-19T16:20:52;11.15;;;9.02;;
9324;SDS011;4701;51.566;6.776;2022-08-19T16:22:54;11.02;;;9.18;;
9324;SDS011;4701;51.566;6.776;2022-08-19T16:24:58;14.98;;;11.05;;
9324;SDS011;4701;51.566;6.776;2022-08-19T16:27:00;10.85;;;9.65;;
9324;SDS011;4701;51.566;6.776;2022-08-19T16:29:03;12.27;;;9.60;;
9324;SDS011;4701;51.566;6.776;2022-08-19T16:31:08;9.13;;;8.25;;
9324;SDS011;4701;51.566;6.776;2022-08-19T16:33:10;10.65;;;8.93;;
9324;SDS011;4701;51.566;6.776;2022-08-19T16:35:12;9.30;;;8.23;;
9324;SDS011;4701;51.566;6.776;2022-08-19T16:37:15;10.55;;;7.63;;
9324;SDS011;4701;51.566;6.776;2022-08-19T16:39:17;9.50;;;8.60;;
9324;SDS011;4701;51.566;6.776;2022-08-19T16:41:19;10.13;;;8.48;;
9324;SDS011;4701;51.566;6.776;2022-08-19T16:43:22;14.40;;;9.80;;
9324;SDS011;4701;51.566;6.776;2022-08-19T16:45:25;12.30;;;11.10;;
9324;SDS011;4701;51.566;6.776;2022-08-19T16:47:28;13.30;;;8.73;;
9324;SDS011;4701;51.566;6.776;2022-08-19T16:49:30;9.82;;;8.82;;
9324;SDS011;4701;51.566;6.776;2022-08-19T16:51:32;10.70;;;8.85;;
9324;SDS011;4701;51.566;6.776;2022-08-19T16:53:35;11.80;;;8.20;;
9324;SDS011;4701;51.566;6.776;2022-08-19T16:55:37;11.68;;;9.00;;
9324;SDS011;4701;51.566;6.776;2022-08-19T16:57:40;12.93;;;9.70;;
9324;SDS011;4701;51.566;6.776;2022-08-19T16:59:42;10.32;;;9.00;;
9324;SDS011;4701;51.566;6.776;2022-08-19T17:01:46;10.95;;;9.80;;
9324;SDS011;4701;51.566;6.776;2022-08-19T17:03:53;11.63;;;10.20;;
9324;SDS011;4701;51.566;6.776;2022-08-19T17:05:56;13.27;;;11.05;;
9324;SDS011;4701;51.566;6.776;2022-08-19T17:08:07;13.38;;;10.63;;
9324;SDS011;4701;51.566;6.776;2022-08-19T17:10:11;11.50;;;10.25;;
9324;SDS011;4701;51.566;6.776;2022-08-19T17:12:16;11.00;;;9.35;;
9324;SDS011;4701;51.566;6.776;2022-08-19T17:14:23;12.45;;;10.80;;
9324;SDS011;4701;51.566;6.776;2022-08-19T17:16:49;15.15;;;11.52;;
9324;SDS011;4701;51.566;6.776;2022-08-19T17:19:06;13.52;;;10.30;;
9324;SDS011;4701;51.566;6.776;2022-08-19T17:21:15;13.73;;;10.77;;
9324;SDS011;4701;51.566;6.776;2022-08-19T17:23:29;12.73;;;9.85;;
9324;SDS011;4701;51.566;6.776;2022-08-19T17:25:34;15.00;;;11.60;;
9324;SDS011;4701;51.566;6.776;2022-08-19T17:27:38;15.07;;;10.85;;
9324;SDS011;4701;51.566;6.776;2022-08-19T17:29:47;12.77;;;11.35;;
9324;SDS011;4701;51.566;6.776;2022-08-19T17:31:51;11.48;;;9.38;;
9324;SDS011;4701;51.566;6.776;2022-08-19T17:33:57;16.73;;;12.65;;
9324;SDS011;4701;51.566;6.776;2022-08-19T17:36:04;18.13;;;11.32;;
9324;SDS011;4701;51.566;6.776;2022-08-19T17:38:14;15.43;;;13.18;;
9324;SDS011;4701;51.566;6.776;2022-08-19T17:40:24;16.45;;;13.98;;
9324;SDS011;4701;51.566;6.776;2022-08-19T17:42:34;14.63;;;12.43;;
9324;SDS011;4701;51.566;6.776;2022-08-19T17:44:43;16.63;;;13.57;;
9324;SDS011;4701;51.566;6.776;2022-08-19T17:46:50;14.88;;;12.52;;